Time,TemperatureF,DewpointF,PressureIn,WindDirection,WindDirectionDegrees,WindSpeedMPH,WindSpeedGustMPH,Humidity,HourlyPrecipIn,Conditions,Clouds,dailyrainin,SoftwareType,DateUTC
2013-09-15 00:00:00,57.0,-99.9,29.96,NW,315,8.0,9.0,-999,-99.99,,,-99.99,,2013-09-15 04:00:00,
2013-09-15 00:55:00,57.0,-99.9,29.96,NW,315,8.0,9.0,-999,-99.99,,,-99.99,,2013-09-15 04:55:00,
2013-09-15 01:00:00,56.0,-99.9,29.98,North,9,4.0,5.0,-999,-99.99,,,-99.99,,2013-09-15 05:00:00,
2013-09-15 01:52:00,56.0,-99.9,29.98,North,9,4.0,5.0,-999,-99.99,,,-99.99,,2013-09-15 05:52:00,
2013-09-15 02:52:00,56.0,-99.9,30.00,NW,314,5.0,6.0,-999,-99.99,,,-99.99,,2013-09-15 06:52:00,
2013-09-15 03:30:00,56.0,-99.9,30.00,NNW,338,7.0,9.0,-999,-99.99,,,-99.99,,2013-09-15 07:30:00,
2013-09-15 04:11:00,56.0,-99.9,30.00,NNW,338,7.0,9.0,-999,-99.99,,,-99.99,,2013-09-15 08:11:00,
2013-09-15 04:22:00,56.0,-99.9,30.00,NNW,338,7.0,9.0,-999,-99.99,,,-99.99,,2013-09-15 08:22:00,
2013-09-15 04:30:00,56.0,-99.9,30.02,NW,326,6.0,8.0,-999,-99.99,,,-99.99,,2013-09-15 08:30:00,
2013-09-15 05:00:00,56.0,-99.9,30.03,NW,315,8.0,10.0,-999,-99.99,,,-99.99,,2013-09-15 09:00:00,
2013-09-15 05:12:00,56.0,-99.9,30.02,NW,326,6.0,8.0,-999,-99.99,,,-99.99,,2013-09-15 09:12:00,
2013-09-15 05:22:00,56.0,-99.9,30.02,NW,326,6.0,8.0,-999,-99.99,,,-99.99,,2013-09-15 09:22:00,
2013-09-15 05:54:00,56.0,-99.9,30.03,NW,315,8.0,10.0,-999,-99.99,,,-99.99,,2013-09-15 09:54:00,
2013-09-15 06:00:00,55.0,-99.9,30.04,WNW,303,5.0,7.0,-999,-99.99,,,-99.99,,2013-09-15 10:00:00,
2013-09-15 06:53:00,55.0,-99.9,30.04,WNW,303,5.0,7.0,-999,-99.99,,,-99.99,,2013-09-15 10:53:00,
2013-09-15 07:52:00,55.0,-99.9,30.05,West,274,6.0,7.0,-999,-99.99,,,-99.99,,2013-09-15 11:52:00,
2013-09-15 08:52:00,55.0,-99.9,30.06,West,270,7.0,8.0,-999,-99.99,,,-99.99,,2013-09-15 12:52:00,
2013-09-15 09:00:00,56.0,-99.9,30.07,WSW,255,6.0,8.0,-999,-99.99,,,-99.99,,2013-09-15 13:00:00,
2013-09-15 09:53:00,56.0,-99.9,30.07,WSW,255,6.0,8.0,-999,-99.99,,,-99.99,,2013-09-15 13:53:00,
2013-09-15 15:00:00,57.0,-99.9,30.04,SW,230,14.0,17.0,-999,-99.99,,,-99.99,,2013-09-15 19:00:00,
2013-09-15 15:52:00,57.0,-99.9,30.04,SW,230,14.0,17.0,-999,-99.99,,,-99.99,,2013-09-15 19:52:00,
2013-09-15 16:53:00,57.0,-99.9,30.02,SW,230,16.0,20.0,-999,-99.99,,,-99.99,,2013-09-15 20:53:00,
2013-09-15 17:00:00,57.0,-99.9,30.02,SW,221,12.0,15.0,-999,-99.99,,,-99.99,,2013-09-15 21:00:00,
2013-09-15 17:54:00,57.0,-99.9,30.02,SW,221,12.0,15.0,-999,-99.99,,,-99.99,,2013-09-15 21:54:00,
2013-09-15 18:54:00,57.0,-99.9,30.01,SW,232,12.0,15.0,-999,-99.99,,,-99.99,,2013-09-15 22:54:00,
2013-09-15 19:00:00,56.0,-99.9,30.01,SW,231,12.0,14.0,-999,-99.99,,,-99.99,,2013-09-15 23:00:00,
2013-09-15 19:53:00,56.0,-99.9,30.01,SW,231,12.0,14.0,-999,-99.99,,,-99.99,,2013-09-15 23:53:00,
2013-09-15 20:52:00,57.0,-99.9,30.01,SW,232,12.0,14.0,-999,-99.99,,,-99.99,,2013-09-16 00:52:00,
2013-09-15 21:52:00,56.0,-99.9,30.01,SW,224,10.0,12.0,-999,-99.99,,,-99.99,,2013-09-16 01:52:00,
2013-09-15 22:52:00,57.0,-99.9,30.00,SW,214,9.0,11.0,-999,-99.99,,,-99.99,,2013-09-16 02:52:00,
2013-09-15 23:00:00,57.0,-99.9,29.99,SW,214,11.0,13.0,-999,-99.99,,,-99.99,,2013-09-16 03:00:00,
2013-09-15 23:55:00,57.0,-99.9,29.99,SW,214,11.0,13.0,-999,-99.99,,,-99.99,,2013-09-16 03:55:00,